Time;durP1;ratioP1;P1;durP2;ratioP2;P2;SDS_P1;SDS_P2;PMS_P1;PMS_P2;Temp;Humidity;BMP_temperature;BMP_pressure;BME280_temperature;BME280_humidity;BME280_pressure;Samples;Min_cycle;Max_cycle;Signal;HPM_P1;HPM_P2
2023/03/23 00:01:19;;;;;;;11.85;3.70;;;;;;;10.64;100.00;100087.81;5066732;28;20025;-75
2023/03/23 00:03:46;;;;;;;11.05;3.80;;;;;;;10.65;100.00;100094.91;5058349;28;20026;-75
2023/03/23 00:06:16;;;;;;;14.15;4.03;;;;;;;10.63;100.00;100081.63;5073310;28;20112;-75
2023/03/23 00:08:46;;;;;;;14.75;4.07;;;;;;;10.64;100.00;100071.69;5064296;28;20083;-75
2023/03/23 00:11:18;;;;;;;10.52;3.35;;;;;;;10.64;100.00;100069.88;5061779;28;20025;-75
2023/03/23 00:13:45;;;;;;;14.27;4.47;;;;;;;10.65;100.00;100073.41;5061852;28;20440;-75
2023/03/23 00:16:17;;;;;;;12.55;4.18;;;;;;;10.66;100.00;100083.19;5060050;28;20506;-75
2023/03/23 00:18:52;;;;;;;17.17;4.32;;;;;;;10.67;100.00;100092.94;5065208;28;20034;-75
2023/03/23 00:21:18;;;;;;;12.32;3.95;;;;;;;10.67;100.00;100068.75;5070494;28;20060;-75
2023/03/23 00:23:44;;;;;;;14.45;4.43;;;;;;;10.69;100.00;100074.00;5059216;28;20029;-75
2023/03/23 00:26:11;;;;;;;11.05;3.83;;;;;;;10.70;100.00;100073.84;5074973;28;20032;-75
2023/03/23 00:28:38;;;;;;;12.73;4.20;;;;;;;10.71;100.00;100086.31;5066240;28;20024;-75
2023/03/23 00:31:06;;;;;;;14.73;4.38;;;;;;;10.71;100.00;100085.47;5064246;28;20365;-75
2023/03/23 00:33:37;;;;;;;14.15;4.45;;;;;;;10.72;100.00;100088.03;5071146;28;20272;-75
2023/03/23 00:36:04;;;;;;;15.85;4.60;;;;;;;10.72;100.00;100098.78;5066861;28;20021;-75
2023/03/23 00:38:29;;;;;;;14.82;4.40;;;;;;;10.73;100.00;100089.75;5080917;28;20029;-75
2023/03/23 00:40:54;;;;;;;17.27;5.10;;;;;;;10.74;100.00;100085.22;5068586;28;20090;-75
2023/03/23 00:43:20;;;;;;;15.32;4.30;;;;;;;10.77;100.00;100087.63;5061111;28;20029;-75
2023/03/23 00:45:52;;;;;;;11.68;4.60;;;;;;;10.77;100.00;100080.41;5065069;28;20024;-75
2023/03/23 00:48:22;;;;;;;14.35;4.65;;;;;;;10.78;100.00;100071.38;5059826;28;20025;-75
2023/03/23 00:50:48;;;;;;;15.95;4.50;;;;;;;10.79;100.00;100069.53;5048778;28;20025;-75
2023/03/23 00:53:15;;;;;;;14.55;4.70;;;;;;;10.79;100.00;100073.09;5071181;28;20114;-75
2023/03/23 00:55:42;;;;;;;15.10;4.38;;;;;;;10.79;100.00;100072.22;5073435;28;20021;-75
2023/03/23 00:58:07;;;;;;;12.98;4.28;;;;;;;10.79;100.00;100073.09;5078210;28;20012;-74
2023/03/23 01:00:33;;;;;;;12.50;4.57;;;;;;;10.78;100.00;100066.00;5072861;28;20032;-75
2023/03/23 01:02:58;;;;;;;13.48;4.35;;;;;;;10.76;100.00;100038.41;5060576;28;20028;-75
2023/03/23 01:05:23;;;;;;;12.98;4.75;;;;;;;10.75;100.00;100036.69;5071041;28;20114;-74
2023/03/23 01:07:49;;;;;;;11.80;4.40;;;;;;;10.73;100.00;100041.38;5075869;28;20497;-75
2023/03/23 01:10:15;;;;;;;16.50;5.00;;;;;;;10.73;100.00;100040.50;5076556;28;20025;-74
2023/03/23 01:12:44;;;;;;;14.02;4.65;;;;;;;10.70;100.00;100038.91;5066808;28;20025;-75
2023/03/23 01:15:15;;;;;;;12.70;3.90;;;;;;;10.71;100.00;100010.22;5065147;28;20059;-75
2023/03/23 01:17:41;;;;;;;12.00;4.85;;;;;;;10.69;100.00;100007.69;5072113;28;20029;-75
2023/03/23 01:20:07;;;;;;;14.20;5.05;;;;;;;10.72;100.00;100017.28;5062795;28;20053;-75
2023/03/23 01:22:32;;;;;;;14.77;4.70;;;;;;;10.72;100.00;100012.78;5064654;28;20020;-74
2023/03/23 01:24:58;;;;;;;15.85;4.82;;;;;;;10.73;100.00;100017.19;5076241;28;20437;-75
2023/03/23 01:27:26;;;;;;;14.93;5.40;;;;;;;10.74;100.00;100018.84;5077494;28;20029;-75
2023/03/23 01:29:51;;;;;;;13.13;4.30;;;;;;;10.76;100.00;100019.59;5066004;28;20025;-75
2023/03/23 01:32:17;;;;;;;14.80;4.70;;;;;;;10.76;100.00;100024.09;5068037;28;20089;-75
2023/03/23 01:34:42;;;;;;;14.93;5.10;;;;;;;10.76;100.00;100011.53;5073244;28;20037;-75
2023/03/23 01:37:07;;;;;;;18.73;5.68;;;;;;;10.75;100.00;100014.34;5070258;28;20029;-75
2023/03/23 01:39:33;;;;;;;13.85;4.68;;;;;;;10.77;100.00;100015.91;5071297;28;20037;-75
2023/03/23 01:41:58;;;;;;;14.20;5.07;;;;;;;10.77;100.00;100015.91;5063085;28;20020;-75
2023/03/23 01:44:23;;;;;;;11.95;4.53;;;;;;;10.78;100.00;100006.84;5066052;28;20067;-75
2023/03/23 01:46:49;;;;;;;16.67;4.70;;;;;;;10.79;100.00;100019.31;5074621;28;20052;-75
2023/03/23 01:49:22;;;;;;;16.45;5.00;;;;;;;10.80;100.00;100029.06;5069083;28;20195;-75
2023/03/23 01:51:51;;;;;;;15.80;4.47;;;;;;;10.80;100.00;100022.84;5080408;28;20032;-75
2023/03/23 01:54:20;;;;;;;13.10;4.93;;;;;;;10.82;100.00;100021.75;5067257;28;20454;-75
2023/03/23 01:56:56;;;;;;;16.00;4.88;;;;;;;10.83;100.00;100015.38;5075785;28;20025;-75
2023/03/23 01:59:23;;;;;;;16.00;5.13;;;;;;;10.84;100.00;100005.47;5067840;28;20070;-75
2023/03/23 02:01:52;;;;;;;16.77;5.20;;;;;;;10.85;100.00;99999.13;5056068;28;20025;-76
2023/03/23 02:04:19;;;;;;;13.45;4.63;;;;;;;10.85;100.00;99991.06;5058855;28;20035;-76
2023/03/23 02:06:45;;;;;;;16.02;5.10;;;;;;;10.88;100.00;99987.22;5057169;28;20032;-76
2023/03/23 02:09:13;;;;;;;11.63;4.45;;;;;;;10.88;100.00;99985.41;5059847;28;20055;-75
2023/03/23 02:11:42;;;;;;;15.18;4.55;;;;;;;10.89;100.00;99978.19;5044277;28;20107;-76
2023/03/23 02:14:08;;;;;;;16.80;5.40;;;;;;;10.90;100.00;99978.03;5060803;28;20021;-76
2023/03/23 02:16:54;;;;;;;12.25;4.35;;;;;;;10.90;100.00;99977.22;5059088;28;20108;-75
2023/03/23 02:19:55;;;;;;;13.10;4.40;;;;;;;10.93;100.00;99971.56;5051394;28;20028;-76
2023/03/23 02:22:40;;;;;;;17.67;5.15;;;;;;;10.93;100.00;99967.00;5054513;28;20420;-76
2023/03/23 02:25:08;;;;;;;11.65;4.63;;;;;;;10.92;100.00;99975.22;5056915;28;20028;-76
2023/03/23 02:27:47;;;;;;;13.75;5.20;;;;;;;10.93;100.00;99977.78;5048679;28;20330;-76
2023/03/23 02:30:21;;;;;;;17.83;4.68;;;;;;;10.96;100.00;99976.66;5044062;28;20102;-76
2023/03/23 02:33:09;;;;;;;15.52;4.93;;;;;;;10.98;100.00;99975.53;5048735;28;20024;-76
2023/03/23 02:35:39;;;;;;;12.10;3.95;;;;;;;10.98;100.00;99969.28;5056941;28;20058;-75
2023/03/23 02:38:13;;;;;;;12.88;4.65;;;;;;;10.98;100.00;99964.78;5057927;28;20021;-75
2023/03/23 02:40:42;;;;;;;12.05;4.18;;;;;;;10.99;100.00;99954.88;5065994;28;20065;-75
2023/03/23 02:43:13;;;;;;;13.45;4.65;;;;;;;10.99;100.00;99971.84;5046906;28;20388;-76
2023/03/23 02:45:41;;;;;;;13.00;4.20;;;;;;;11.00;100.00;99953.88;5052101;28;20037;-76
2023/03/23 02:48:08;;;;;;;15.25;4.93;;;;;;;11.00;100.00;99954.72;5050219;28;20128;-75
2023/03/23 02:50:36;;;;;;;11.93;4.40;;;;;;;11.01;100.00;99959.13;5065570;28;20111;-75
2023/03/23 02:53:07;;;;;;;12.75;4.63;;;;;;;11.03;100.00;99972.44;5043081;28;20445;-76
2023/03/23 02:55:34;;;;;;;14.55;4.45;;;;;;;11.05;100.00;99970.44;5056014;28;20031;-76
2023/03/23 02:58:01;;;;;;;13.50;4.80;;;;;;;11.06;100.00;99971.31;5058347;28;20499;-76
2023/03/23 03:00:27;;;;;;;14.02;4.47;;;;;;;11.09;100.00;99965.66;5058031;28;20108;-76
2023/03/23 03:02:55;;;;;;;15.10;4.78;;;;;;;11.10;100.00;99968.22;5052631;28;20112;-75
2023/03/23 03:05:42;;;;;;;12.23;4.45;;;;;;;11.12;100.00;99970.75;5059722;28;20032;-76
2023/03/23 03:08:13;;;;;;;12.15;4.63;;;;;;;11.13;100.00;99967.94;5050503;28;20036;-76
2023/03/23 03:10:46;;;;;;;14.68;4.78;;;;;;;11.14;100.00;99975.03;5054852;28;20524;-76
2023/03/23 03:13:53;;;;;;;12.82;4.97;;;;;;;11.16;100.00;99969.50;5050779;28;20385;-75
2023/03/23 03:16:18;;;;;;;14.43;4.75;;;;;;;11.15;100.00;99971.31;5055558;28;20040;-75
2023/03/23 03:19:03;;;;;;;11.05;4.40;;;;;;;11.18;100.00;99970.19;5056345;28;20025;-75
2023/03/23 03:21:33;;;;;;;12.55;4.65;;;;;;;11.17;100.00;99963.97;5042629;28;20040;-76
2023/03/23 03:24:01;;;;;;;14.52;4.82;;;;;;;11.18;100.00;99973.72;5055768;28;20475;-76
2023/03/23 03:26:28;;;;;;;15.02;4.63;;;;;;;11.18;100.00;99978.28;5045169;28;20113;-76
2023/03/23 03:28:54;;;;;;;13.40;4.95;;;;;;;11.16;100.00;99967.66;5050887;28;20540;-76
2023/03/23 03:31:33;;;;;;;14.60;4.90;;;;;;;11.16;100.00;99967.66;5048194;28;20036;-76
2023/03/23 03:34:01;;;;;;;14.98;4.78;;;;;;;11.14;100.00;99975.03;5046767;28;20057;-76
2023/03/23 03:36:34;;;;;;;18.25;5.20;;;;;;;11.15;100.00;99968.63;5045899;28;20400;-76
2023/03/23 03:39:04;;;;;;;14.15;4.97;;;;;;;11.15;100.00;99968.63;5046664;28;20068;-76
2023/03/23 03:41:29;;;;;;;14.02;4.88;;;;;;;11.16;100.00;99981.09;5059579;28;20056;-75
2023/03/23 03:43:55;;;;;;;10.75;4.18;;;;;;;11.17;100.00;99979.25;5053882;28;20052;-76
2023/03/23 03:46:20;;;;;;;18.02;4.28;;;;;;;11.16;100.00;99983.78;5049861;28;20021;-76
2023/03/23 03:48:45;;;;;;;15.13;4.63;;;;;;;11.16;100.00;99973.03;5043256;28;20499;-76
2023/03/23 03:51:11;;;;;;;12.15;3.95;;;;;;;11.16;100.00;99978.41;5044910;28;20024;-75
2023/03/23 03:53:36;;;;;;;14.70;3.95;;;;;;;11.16;100.00;99964.97;5057626;28;20025;-75
2023/03/23 03:56:02;;;;;;;12.43;4.00;;;;;;;11.16;100.00;99969.50;5056200;28;20028;-76
2023/03/23 03:58:31;;;;;;;11.52;3.90;;;;;;;11.16;99.91;99981.09;5060414;28;20032;-75
2023/03/23 04:00:58;;;;;;;15.17;3.63;;;;;;;11.16;99.53;99978.41;5053243;28;20016;-76
2023/03/23 04:03:23;;;;;;;10.73;3.80;;;;;;;11.17;99.54;99982.81;5063386;28;20033;-75
2023/03/23 04:05:48;;;;;;;10.50;3.65;;;;;;;11.17;99.35;99985.50;5055048;28;20090;-76
2023/03/23 04:08:14;;;;;;;19.45;4.28;;;;;;;11.15;98.89;99987.44;5058416;28;20069;-76
2023/03/23 04:10:40;;;;;;;13.93;3.47;;;;;;;11.15;98.53;99981.25;5051475;28;20489;-76
2023/03/23 04:13:06;;;;;;;12.85;3.45;;;;;;;11.16;98.05;99993.69;5054127;28;20025;-76
2023/03/23 04:15:31;;;;;;;12.15;3.35;;;;;;;11.16;97.40;99989.16;5058863;28;20032;-76
2023/03/23 04:17:56;;;;;;;9.60;2.97;;;;;;;11.16;97.99;99996.41;5052818;28;20026;-76
2023/03/23 04:20:22;;;;;;;10.85;3.22;;;;;;;11.16;97.79;99994.53;5060110;28;20036;-75
2023/03/23 04:22:51;;;;;;;12.90;2.85;;;;;;;11.15;97.55;100003.59;5060587;28;20463;-76
2023/03/23 04:25:21;;;;;;;10.73;3.13;;;;;;;11.15;97.37;99992.84;5055470;28;20049;-76
2023/03/23 04:27:54;;;;;;;11.88;3.60;;;;;;;11.15;97.30;99998.22;5053932;28;20480;-76
2023/03/23 04:30:27;;;;;;;10.38;3.15;;;;;;;11.14;97.61;99996.53;5057064;28;20397;-76
2023/03/23 04:32:54;;;;;;;13.52;3.03;;;;;;;11.14;97.01;100004.59;5063558;28;20017;-76
2023/03/23 04:35:24;;;;;;;13.88;3.13;;;;;;;11.14;96.67;100020.75;5062898;28;20525;-76
2023/03/23 04:37:49;;;;;;;10.20;2.80;;;;;;;11.15;96.22;100011.66;5044978;28;20021;-76
2023/03/23 04:40:16;;;;;;;12.23;3.38;;;;;;;11.18;96.27;100006.00;5066076;28;20112;-76
2023/03/23 04:42:46;;;;;;;11.98;3.08;;;;;;;11.19;96.18;100009.56;5048449;28;20486;-76
2023/03/23 04:45:15;;;;;;;;;;;;;;;11.22;97.54;100020.03;5069511;28;20032;-76
2023/03/23 04:47:41;;;;;;;12.20;3.15;;;;;;;11.18;95.72;100016.75;5057825;28;20417;-76
2023/03/23 04:50:12;;;;;;;8.32;2.60;;;;;;;11.18;96.35;100019.44;5049758;28;20029;-76
2023/03/23 04:52:40;;;;;;;13.60;2.90;;;;;;;11.18;95.60;100018.59;5054192;28;20037;-76
2023/03/23 04:55:07;;;;;;;12.75;2.95;;;;;;;11.17;96.01;100017.78;5070395;28;20028;-76
2023/03/23 04:57:33;;;;;;;11.70;2.97;;;;;;;11.17;96.10;100022.28;5058722;28;20025;-76
2023/03/23 05:00:00;;;;;;;12.35;2.83;;;;;;;11.15;96.48;100018.88;5062734;28;20039;-76
2023/03/23 05:02:29;;;;;;;8.57;2.53;;;;;;;11.15;96.50;100016.19;5059873;28;20115;-76
2023/03/23 05:04:55;;;;;;;7.82;2.38;;;;;;;11.14;97.10;100022.56;5056080;28;20119;-76
2023/03/23 05:07:20;;;;;;;9.70;2.78;;;;;;;11.13;96.39;100016.34;5054324;28;20115;-76
2023/03/23 05:09:49;;;;;;;8.68;2.60;;;;;;;11.12;97.40;100014.63;5056558;28;20041;-76
2023/03/23 05:12:15;;;;;;;11.90;2.65;;;;;;;11.12;96.24;100014.63;5060272;28;20492;-76
2023/03/23 05:14:43;;;;;;;8.60;2.47;;;;;;;11.13;96.46;100023.56;5060664;28;20029;-76
2023/03/23 05:17:08;;;;;;;11.38;2.83;;;;;;;11.12;96.33;100017.31;5050191;28;20053;-76
2023/03/23 05:19:35;;;;;;;12.10;2.90;;;;;;;11.12;96.26;100019.16;5046525;28;20493;-76
2023/03/23 05:22:03;;;;;;;9.45;2.65;;;;;;;11.11;95.52;100012.06;5064768;28;20380;-76
2023/03/23 05:24:32;;;;;;;11.60;2.92;;;;;;;11.11;95.50;100018.31;5061060;28;20448;-76
2023/03/23 05:26:59;;;;;;;14.25;3.20;;;;;;;11.11;95.39;100022.84;5056735;28;20387;-76
2023/03/23 05:29:25;;;;;;;20.42;4.25;;;;;;;11.12;95.37;100029.91;5057569;28;20104;-76
2023/03/23 05:31:52;;;;;;;13.95;3.63;;;;;;;11.11;95.80;100039.84;5064966;28;20029;-76
2023/03/23 05:34:18;;;;;;;11.32;3.20;;;;;;;11.10;95.62;100031.88;5056674;28;20025;-76
2023/03/23 05:36:44;;;;;;;11.93;3.22;;;;;;;11.08;96.44;100029.31;5061672;28;20177;-75
2023/03/23 05:39:11;;;;;;;13.25;2.85;;;;;;;11.07;97.00;100022.25;5056177;28;20115;-76
2023/03/23 05:41:37;;;;;;;12.65;2.78;;;;;;;11.04;97.63;100033.31;5062582;28;20031;-76
2023/03/23 05:44:03;;;;;;;7.95;2.70;;;;;;;11.04;97.41;100027.03;5062662;28;20047;-76
2023/03/23 05:46:29;;;;;;;12.07;3.13;;;;;;;11.00;97.65;100029.16;5058697;28;20523;-76
2023/03/23 05:48:54;;;;;;;11.15;2.72;;;;;;;10.98;97.82;100034.69;5055621;28;20033;-76
2023/03/23 05:51:19;;;;;;;14.85;2.80;;;;;;;10.96;98.65;100030.41;5054073;28;20492;-76
2023/03/23 05:53:45;;;;;;;12.82;2.90;;;;;;;10.95;98.53;100034.09;5057048;28;20473;-76
2023/03/23 05:56:12;;;;;;;13.68;3.50;;;;;;;10.94;98.14;100030.56;5048512;28;20029;-76
2023/03/23 05:58:37;;;;;;;13.55;2.63;;;;;;;10.93;98.10;100026.16;5055535;28;20020;-76
2023/03/23 06:01:06;;;;;;;11.23;2.83;;;;;;;10.92;98.67;100039.75;5063600;28;20386;-76
2023/03/23 06:03:32;;;;;;;14.57;3.10;;;;;;;10.92;98.14;100031.69;5057142;28;20216;-76
2023/03/23 06:05:58;;;;;;;12.65;3.20;;;;;;;10.93;97.77;100028.84;5048351;28;20186;-76
2023/03/23 06:08:24;;;;;;;12.48;2.92;;;;;;;10.93;98.00;100033.38;5066591;28;20503;-76
2023/03/23 06:10:49;;;;;;;14.48;3.80;;;;;;;10.93;97.52;100031.53;5052749;28;20032;-76
2023/03/23 06:13:14;;;;;;;11.63;2.90;;;;;;;10.95;97.92;100047.53;5060133;28;20024;-76
2023/03/23 06:15:40;;;;;;;15.43;3.65;;;;;;;10.96;96.57;100052.78;5051758;28;20112;-76
2023/03/23 06:18:06;;;;;;;13.20;2.95;;;;;;;10.98;96.75;100052.63;5041587;28;20028;-76
2023/03/23 06:20:32;;;;;;;14.43;3.00;;;;;;;10.98;96.73;100060.69;5036941;28;20047;-76
2023/03/23 06:22:58;;;;;;;13.27;3.15;;;;;;;11.00;97.40;100058.75;5042213;28;20048;-76
2023/03/23 06:25:23;;;;;;;15.63;3.38;;;;;;;11.01;96.62;100063.13;5043286;28;20091;-76
2023/03/23 06:27:49;;;;;;;19.60;3.63;;;;;;;11.02;96.16;100075.59;5038425;28;20033;-76
2023/03/23 06:30:15;;;;;;;13.35;3.08;;;;;;;11.03;95.87;100077.28;5035869;28;20497;-76
2023/03/23 06:32:41;;;;;;;19.27;3.15;;;;;;;11.04;95.12;100073.63;5037419;28;20032;-76
2023/03/23 06:35:09;;;;;;;16.42;3.83;;;;;;;11.06;94.84;100087.78;5055249;28;20481;-76
2023/03/23 06:37:36;;;;;;;14.55;3.03;;;;;;;11.07;94.45;100088.63;5054306;28;20190;-76
2023/03/23 06:40:03;;;;;;;10.85;2.95;;;;;;;11.07;95.26;100081.44;5047818;28;20044;-76
2023/03/23 06:42:29;;;;;;;11.75;3.30;;;;;;;11.08;94.30;100093.03;5044538;28;20521;-76
2023/03/23 06:44:56;;;;;;;11.27;3.13;;;;;;;11.09;95.25;100097.44;5035538;28;20032;-76
2023/03/23 06:47:23;;;;;;;13.13;2.88;;;;;;;11.10;95.09;100099.09;5040355;28;20029;-76
2023/03/23 06:49:48;;;;;;;12.25;3.08;;;;;;;11.08;94.93;100104.63;5056988;28;20463;-76
2023/03/23 06:52:13;;;;;;;10.55;2.67;;;;;;;11.09;94.55;100095.56;5044978;28;20100;-76
2023/03/23 06:54:39;;;;;;;14.52;3.40;;;;;;;11.11;95.26;100115.13;5061195;28;20024;-76
2023/03/23 06:57:04;;;;;;;13.68;3.13;;;;;;;11.09;95.20;100117.09;5049044;28;20119;-76
2023/03/23 06:59:30;;;;;;;16.00;3.22;;;;;;;11.10;94.90;100118.81;5042477;28;20119;-76
2023/03/23 07:01:56;;;;;;;14.88;3.33;;;;;;;11.10;96.07;100126.88;5047332;28;20025;-76
2023/03/23 07:04:23;;;;;;;13.57;3.20;;;;;;;11.09;97.00;100114.41;5046542;28;20091;-76
2023/03/23 07:06:48;;;;;;;9.95;3.13;;;;;;;11.08;98.66;100114.53;5044273;28;20089;-76
2023/03/23 07:09:14;;;;;;;11.68;2.97;;;;;;;11.04;99.86;100116.66;5033860;28;20488;-76
2023/03/23 07:11:43;;;;;;;14.52;3.47;;;;;;;11.00;100.00;100121.44;5037173;28;20036;-76
2023/03/23 07:14:09;;;;;;;15.32;3.00;;;;;;;10.95;100.00;100136.25;5033891;28;20021;-75
2023/03/23 07:16:34;;;;;;;13.18;3.00;;;;;;;10.92;100.00;100141.91;5040124;28;20563;-75
2023/03/23 07:19:00;;;;;;;15.23;3.30;;;;;;;10.87;100.00;100144.16;5043715;28;20440;-75
2023/03/23 07:21:25;;;;;;;17.05;3.78;;;;;;;10.79;100.00;100151.03;5039523;28;20529;-75
2023/03/23 07:23:51;;;;;;;11.77;3.25;;;;;;;10.73;100.00;100158.75;5044859;28;20022;-75
2023/03/23 07:26:16;;;;;;;14.45;3.08;;;;;;;10.68;100.00;100155.63;5037977;28;20029;-76
2023/03/23 07:28:42;;;;;;;13.90;3.53;;;;;;;10.64;100.00;100173.81;5044295;28;20058;-76
2023/03/23 07:31:08;;;;;;;15.20;3.63;;;;;;;10.58;100.00;100171.66;5036890;28;20356;-76
2023/03/23 07:33:35;;;;;;;9.43;2.60;;;;;;;10.55;100.00;100182.66;5045536;28;20268;-76
2023/03/23 07:36:01;;;;;;;11.75;2.75;;;;;;;10.48;100.00;100175.13;5043501;28;20032;-76
2023/03/23 07:38:27;;;;;;;5.00;1.55;;;;;;;10.32;100.00;100163.91;5041258;28;20035;-76
2023/03/23 07:40:53;;;;;;;9.05;2.08;;;;;;;10.21;100.00;100147.84;5040672;28;20116;-77
2023/03/23 07:43:20;;;;;;;6.60;2.20;;;;;;;10.15;100.00;100158.09;5042171;28;20531;-76
2023/03/23 07:45:45;;;;;;;7.63;1.65;;;;;;;10.11;100.00;100153.97;5036029;28;20167;-77
2023/03/23 07:48:11;;;;;;;9.48;2.38;;;;;;;10.10;100.00;100159.47;5040005;28;20441;-77
2023/03/23 07:50:37;;;;;;;5.38;1.88;;;;;;;10.10;100.00;100163.03;5057020;28;20028;-77
2023/03/23 07:53:03;;;;;;;5.70;1.95;;;;;;;10.09;100.00;100157.78;5051580;28;20495;-78
2023/03/23 07:55:28;;;;;;;8.60;2.20;;;;;;;10.07;100.00;100171.34;5053953;28;20159;-77
2023/03/23 07:57:54;;;;;;;6.13;1.95;;;;;;;10.05;100.00;100175.97;5053412;28;20027;-77
2023/03/23 08:00:23;;;;;;;5.80;1.90;;;;;;;10.06;100.00;100185.72;5038400;28;20021;-77
2023/03/23 08:02:51;;;;;;;7.67;1.97;;;;;;;10.03;100.00;100183.28;5042066;28;20541;-77
2023/03/23 08:05:17;;;;;;;7.80;1.80;;;;;;;10.03;100.00;100191.34;5047098;28;20064;-77
2023/03/23 08:07:44;;;;;;;6.72;2.47;;;;;;;9.97;100.00;100200.75;5055598;28;20029;-77
2023/03/23 08:10:11;;;;;;;12.80;2.42;;;;;;;9.95;100.00;100208.06;5044857;28;20025;-77
2023/03/23 08:12:38;;;;;;;9.93;1.98;;;;;;;9.94;100.00;100210.88;5048047;28;20473;-77
2023/03/23 08:15:06;;;;;;;6.75;1.63;;;;;;;9.93;100.00;100209.19;5034893;28;20024;-77
2023/03/23 08:17:32;;;;;;;6.90;1.80;;;;;;;9.95;100.00;100201.84;5057670;28;20027;-78
2023/03/23 08:19:58;;;;;;;5.03;1.70;;;;;;;9.96;100.00;100215.16;5054839;28;20460;-77
2023/03/23 08:22:23;;;;;;;7.63;1.42;;;;;;;9.94;100.00;100211.75;5060178;28;20052;-78
2023/03/23 08:24:49;;;;;;;6.72;1.63;;;;;;;9.96;100.00;100208.94;5060261;28;20059;-77
2023/03/23 08:27:14;;;;;;;4.07;1.45;;;;;;;9.93;100.00;100204.66;5043737;28;20021;-77
2023/03/23 08:29:40;;;;;;;4.57;1.30;;;;;;;9.92;100.00;100211.00;5037125;28;20033;-77
2023/03/23 08:32:06;;;;;;;6.90;1.73;;;;;;;9.89;100.00;100202.34;5035979;28;20025;-78
2023/03/23 08:34:32;;;;;;;5.32;1.33;;;;;;;9.90;100.00;100204.91;5046418;28;20376;-78
2023/03/23 08:36:57;;;;;;;4.68;1.30;;;;;;;9.92;100.00;100207.47;5049543;28;20464;-78
2023/03/23 08:39:26;;;;;;;3.90;1.33;;;;;;;9.92;100.00;100196.72;5061708;28;20024;-77
2023/03/23 08:41:51;;;;;;;6.65;1.48;;;;;;;9.93;100.00;100201.97;5054360;28;20041;-77
2023/03/23 08:44:16;;;;;;;2.85;1.23;;;;;;;9.94;100.00;100200.13;5059468;28;20028;-77
2023/03/23 08:46:42;;;;;;;4.53;1.60;;;;;;;9.94;100.00;100217.09;5052094;28;20090;-77
2023/03/23 08:49:07;;;;;;;6.18;1.17;;;;;;;9.96;100.00;100211.63;5061167;28;20024;-78
2023/03/23 08:51:33;;;;;;;5.40;1.73;;;;;;;9.97;100.00;100213.31;5054721;28;20025;-77
2023/03/23 08:53:58;;;;;;;5.53;1.48;;;;;;;9.97;100.00;100210.63;5061664;28;20044;-77
2023/03/23 08:56:24;;;;;;;6.93;1.75;;;;;;;9.97;100.00;100207.94;5061271;28;20082;-77
2023/03/23 08:58:49;;;;;;;9.23;1.98;;;;;;;10.00;100.00;100214.88;5053897;28;20358;-77
2023/03/23 09:01:15;;;;;;;5.10;1.58;;;;;;;10.00;100.00;100231.00;5065105;28;20048;-77
2023/03/23 09:03:41;;;;;;;6.13;1.63;;;;;;;10.01;100.00;100241.59;5064206;28;20036;-77
2023/03/23 09:06:08;;;;;;;7.05;2.08;;;;;;;10.00;100.00;100220.25;5053967;28;20029;-77
2023/03/23 09:08:35;;;;;;;7.28;1.77;;;;;;;10.02;100.00;100213.78;5060036;28;20017;-77
2023/03/23 09:11:06;;;;;;;5.32;1.80;;;;;;;10.07;100.00;100206.25;5064430;28;20032;-77
2023/03/23 09:13:33;;;;;;;4.68;1.60;;;;;;;10.13;100.00;100195.00;5060460;28;20025;-77
2023/03/23 09:15:58;;;;;;;5.68;1.70;;;;;;;10.17;100.00;100216.22;5059193;28;20170;-77
2023/03/23 09:18:24;;;;;;;13.68;2.70;;;;;;;10.22;100.00;100220.22;5057148;28;20108;-77
2023/03/23 09:20:50;;;;;;;8.13;1.95;;;;;;;10.24;100.00;100220.09;5058529;28;20037;-77
2023/03/23 09:23:16;;;;;;;7.10;1.63;;;;;;;10.25;100.00;100224.47;5064605;28;20078;-77
2023/03/23 09:25:41;;;;;;;5.07;1.60;;;;;;;10.26;100.00;100213.63;5056537;28;20052;-77
2023/03/23 09:28:07;;;;;;;9.18;2.00;;;;;;;10.28;100.00;100214.34;5052674;28;20020;-77
2023/03/23 09:30:35;;;;;;;7.15;1.70;;;;;;;10.29;100.00;100221.44;5061134;28;20037;-77
2023/03/23 09:33:01;;;;;;;6.97;2.05;;;;;;;10.29;100.00;100212.50;5048755;28;20488;-77
2023/03/23 09:35:27;;;;;;;8.18;1.98;;;;;;;10.29;100.00;100216.06;5061519;28;20113;-77
2023/03/23 09:37:53;;;;;;;6.25;1.95;;;;;;;10.30;100.00;100224.97;5060212;28;20055;-77
2023/03/23 09:40:48;;;;;;;6.75;2.20;;;;;;;10.35;100.00;100235.34;5051495;28;20064;-77
2023/03/23 09:43:39;;;;;;;8.70;2.42;;;;;;;10.35;100.00;100222.78;5063695;28;20029;-77
2023/03/23 09:46:27;;;;;;;6.28;2.30;;;;;;;10.35;100.00;100230.81;5057650;28;20036;-77
2023/03/23 09:48:59;;;;;;;6.55;2.08;;;;;;;10.37;100.00;100228.03;5035850;28;20124;-76
2023/03/23 09:51:44;;;;;;;7.45;2.08;;;;;;;10.38;100.00;100227.91;5062130;28;20037;-77
2023/03/23 09:54:42;;;;;;;7.38;2.25;;;;;;;10.42;100.00;100233.88;5064500;28;20036;-77
2023/03/23 09:57:16;;;;;;;12.98;2.60;;;;;;;10.48;100.00;100220.81;5049973;28;20041;-76
2023/03/23 09:59:51;;;;;;;9.90;2.35;;;;;;;10.53;100.00;100220.41;5053308;28;20033;-77
2023/03/23 10:02:22;;;;;;;7.55;2.03;;;;;;;10.57;100.00;100229.06;5061033;28;20028;-76
2023/03/23 10:04:54;;;;;;;7.95;2.15;;;;;;;10.63;100.00;100228.53;5043774;28;20388;-76
2023/03/23 10:07:22;;;;;;;11.38;2.50;;;;;;;10.68;100.00;100231.72;5052187;28;20116;-76
2023/03/23 10:09:52;;;;;;;13.05;2.92;;;;;;;10.75;100.00;100227.53;5057338;28;20488;-76
2023/03/23 10:12:30;;;;;;;8.70;2.22;;;;;;;10.82;100.00;100233.22;5062862;28;20107;-76
2023/03/23 10:15:15;;;;;;;6.88;2.13;;;;;;;10.92;100.00;100236.00;5059247;28;20040;-76
2023/03/23 10:18:02;;;;;;;9.88;2.65;;;;;;;10.98;100.00;100227.41;5060319;28;20022;-76
2023/03/23 10:21:03;;;;;;;13.15;2.72;;;;;;;11.09;100.00;100248.03;5063796;28;20119;-76
2023/03/23 10:24:03;;;;;;;12.60;2.80;;;;;;;11.22;100.00;100245.13;5048240;28;20055;-76
2023/03/23 10:26:35;;;;;;;11.80;2.53;;;;;;;11.40;100.00;100253.44;5054389;28;20106;-76
2023/03/23 10:29:16;;;;;;;9.35;2.60;;;;;;;11.48;100.00;100257.19;5061508;28;20021;-76
2023/03/23 10:31:47;;;;;;;8.82;3.03;;;;;;;11.57;100.00;100251.97;5063749;28;20177;-76
2023/03/23 10:34:21;;;;;;;11.30;3.10;;;;;;;11.64;99.38;100251.31;5045180;28;20139;-76
2023/03/23 10:37:11;;;;;;;9.00;2.55;;;;;;;11.72;100.00;100254.19;5062317;28;20051;-76
2023/03/23 10:40:09;;;;;;;15.40;3.25;;;;;;;11.78;100.00;100260.88;5042754;28;20108;-76
2023/03/23 10:42:37;;;;;;;8.52;2.50;;;;;;;11.78;99.32;100252.78;5052060;28;20070;-76
2023/03/23 10:45:25;;;;;;;9.23;2.70;;;;;;;11.82;100.00;100253.38;5048013;28;20120;-76
2023/03/23 10:48:14;;;;;;;7.25;2.47;;;;;;;11.91;99.77;100251.72;5050200;28;20128;-76
2023/03/23 10:50:41;;;;;;;14.55;2.67;;;;;;;11.97;98.99;100252.03;5048500;28;20070;-76
2023/03/23 10:53:32;;;;;;;8.60;2.40;;;;;;;12.04;98.76;100252.38;5062139;28;20439;-76
2023/03/23 10:55:59;;;;;;;10.80;3.00;;;;;;;12.10;97.65;100243.72;5058968;28;20035;-76
2023/03/23 10:58:34;;;;;;;12.05;2.90;;;;;;;12.15;98.87;100246.88;5055558;28;20444;-76
2023/03/23 11:01:01;;;;;;;10.73;2.60;;;;;;;12.21;98.20;100246.31;5059890;28;20037;-76
2023/03/23 11:03:38;;;;;;;14.20;2.63;;;;;;;12.27;98.68;100246.75;5059530;28;20025;-76
2023/03/23 11:06:06;;;;;;;8.75;2.40;;;;;;;12.32;95.33;100250.72;5061394;28;20016;-76
2023/03/23 11:08:49;;;;;;;14.70;3.10;;;;;;;12.36;95.30;100248.63;5053966;28;20052;-76
2023/03/23 11:11:18;;;;;;;11.90;3.15;;;;;;;12.40;92.32;100245.50;5062769;28;20024;-76
2023/03/23 11:13:46;;;;;;;12.05;2.70;;;;;;;12.44;93.41;100247.91;5058551;28;20029;-76
2023/03/23 11:16:23;;;;;;;13.35;2.65;;;;;;;12.48;94.86;100250.19;5048050;28;20032;-76
2023/03/23 11:18:49;;;;;;;14.82;3.05;;;;;;;12.48;90.67;100250.19;5059951;28;20051;-76
2023/03/23 11:21:15;;;;;;;10.40;2.58;;;;;;;12.49;90.33;100251.03;5058916;28;20410;-76
2023/03/23 11:23:43;;;;;;;12.32;2.53;;;;;;;12.49;91.63;100245.66;5060094;28;20041;-76
2023/03/23 11:26:08;;;;;;;12.68;2.58;;;;;;;12.51;89.76;100249.06;5062906;28;20103;-76